createdAt,value
2023-05-17T00:00:58.245Z,0.77
2023-05-17T00:03:25.011Z,0.85
2023-05-17T00:05:51.975Z,0.98
2023-05-17T00:08:18.733Z,0.95
2023-05-17T00:10:45.561Z,0.80
2023-05-17T00:13:12.274Z,0.88
2023-05-17T00:15:39.023Z,0.80
2023-05-17T00:18:05.884Z,0.80
2023-05-17T00:20:32.862Z,0.75
2023-05-17T00:23:00.771Z,0.90
2023-05-17T00:25:27.669Z,1.00
2023-05-17T00:27:54.525Z,1.02
2023-05-17T00:30:21.340Z,0.80
2023-05-17T00:32:48.528Z,0.80
2023-05-17T00:35:15.676Z,0.93
2023-05-17T00:37:47.601Z,0.88
2023-05-17T00:40:16.214Z,0.95
2023-05-17T00:42:43.136Z,0.80
2023-05-17T00:45:10.709Z,0.98
2023-05-17T00:47:37.709Z,0.80
2023-05-17T00:50:06.294Z,0.80
2023-05-17T00:52:33.390Z,0.80
2023-05-17T00:55:00.253Z,0.90
2023-05-17T00:57:29.133Z,1.00
2023-05-17T00:59:56.309Z,1.05
2023-05-17T01:02:24.744Z,1.08
2023-05-17T01:04:51.661Z,0.95
2023-05-17T01:07:18.564Z,0.80
2023-05-17T01:09:47.291Z,0.90
2023-05-17T01:12:32.996Z,0.90
2023-05-17T01:15:09.079Z,1.13
2023-05-17T01:18:09.671Z,1.00
2023-05-17T01:20:38.662Z,1.10
2023-05-17T01:23:23.922Z,1.20
2023-05-17T01:26:15.473Z,0.93
2023-05-17T01:28:45.028Z,1.30
2023-05-17T01:31:12.988Z,0.85
2023-05-17T01:33:40.084Z,1.00
2023-05-17T01:36:08.409Z,1.10
2023-05-17T01:38:35.436Z,1.20
2023-05-17T01:41:08.044Z,1.00
2023-05-17T01:43:47.958Z,0.85
2023-05-17T01:46:27.452Z,0.82
2023-05-17T01:49:16.136Z,0.90
2023-05-17T01:52:06.443Z,0.90
2023-05-17T01:54:45.854Z,1.00
2023-05-17T01:57:14.793Z,1.00
2023-05-17T01:59:44.115Z,0.98
2023-05-17T02:02:10.885Z,1.10
2023-05-17T02:04:37.689Z,0.90
2023-05-17T02:07:04.849Z,0.80
2023-05-17T02:09:31.615Z,1.00
2023-05-17T02:11:58.453Z,1.05
2023-05-17T02:14:25.416Z,1.13
2023-05-17T02:16:52.205Z,0.90
2023-05-17T02:19:19.087Z,0.90
2023-05-17T02:21:45.968Z,0.98
2023-05-17T02:24:12.649Z,0.85
2023-05-17T02:26:42.823Z,0.90
2023-05-17T02:29:11.122Z,0.80
2023-05-17T02:31:37.872Z,0.95
2023-05-17T02:34:04.682Z,0.90
2023-05-17T02:36:32.464Z,1.13
2023-05-17T02:38:59.462Z,1.20
2023-05-17T02:41:26.224Z,0.90
2023-05-17T02:43:53.015Z,1.00
2023-05-17T02:46:19.807Z,0.80
2023-05-17T02:48:46.538Z,1.13
2023-05-17T02:51:13.258Z,1.08
2023-05-17T02:53:40.047Z,0.90
2023-05-17T02:56:07.421Z,1.00
2023-05-17T02:58:34.231Z,1.20
2023-05-17T03:01:00.951Z,0.93
2023-05-17T03:03:28.349Z,0.95
2023-05-17T03:05:55.268Z,0.85
2023-05-17T03:08:22.650Z,1.00
2023-05-17T03:10:49.463Z,1.10
2023-05-17T03:13:16.398Z,0.90
2023-05-17T03:15:43.368Z,1.10
2023-05-17T03:18:10.237Z,1.02
2023-05-17T03:20:39.102Z,0.85
2023-05-17T03:23:06.651Z,0.88
2023-05-17T03:25:38.086Z,1.02
2023-05-17T03:28:05.038Z,1.00
2023-05-17T03:30:31.864Z,1.10
2023-05-17T03:32:58.860Z,0.98
2023-05-17T03:35:25.885Z,0.90
2023-05-17T03:37:55.359Z,1.10
2023-05-17T03:40:22.760Z,1.00
2023-05-17T03:42:49.539Z,0.90
2023-05-17T03:45:16.588Z,0.88
2023-05-17T03:47:43.451Z,0.90
2023-05-17T03:50:11.479Z,0.90
2023-05-17T03:52:38.460Z,0.70
2023-05-17T03:55:05.945Z,0.73
2023-05-17T03:57:32.729Z,0.90
2023-05-17T03:59:59.479Z,1.00
2023-05-17T04:02:26.486Z,0.80
2023-05-17T04:04:53.380Z,0.60
2023-05-17T04:07:21.024Z,0.90
2023-05-17T04:09:47.823Z,1.00
2023-05-17T04:12:15.050Z,1.23
2023-05-17T04:14:41.803Z,0.70
2023-05-17T04:17:08.679Z,0.68
2023-05-17T04:19:35.703Z,0.80
2023-05-17T04:22:02.513Z,1.00
2023-05-17T04:24:29.603Z,0.80
2023-05-17T04:26:57.670Z,0.90
2023-05-17T04:29:25.508Z,0.52
2023-05-17T04:31:52.298Z,0.80
2023-05-17T04:34:19.160Z,0.65
2023-05-17T04:36:46.347Z,1.00
2023-05-17T04:39:13.115Z,0.70
2023-05-17T04:41:40.434Z,0.70
2023-05-17T04:44:10.584Z,0.95
2023-05-17T04:46:37.380Z,0.70
2023-05-17T04:49:04.590Z,0.70
2023-05-17T04:51:31.686Z,0.77
2023-05-17T04:54:01.037Z,0.70
2023-05-17T04:56:29.786Z,1.00
2023-05-17T04:58:57.202Z,0.95
2023-05-17T05:01:24.112Z,0.90
2023-05-17T05:03:51.834Z,0.82
2023-05-17T05:06:18.658Z,0.82
2023-05-17T05:08:45.381Z,0.50
2023-05-17T05:11:13.138Z,0.82
2023-05-17T05:13:41.684Z,0.90
2023-05-17T05:16:08.867Z,0.70
2023-05-17T05:18:36.890Z,0.80
2023-05-17T05:21:03.964Z,0.82
2023-05-17T05:23:31.040Z,0.65
2023-05-17T05:25:57.838Z,0.80
2023-05-17T05:28:24.646Z,0.85
2023-05-17T05:30:56.554Z,0.70
2023-05-17T05:33:23.508Z,0.70
2023-05-17T05:35:50.911Z,0.68
2023-05-17T05:38:17.887Z,0.90
2023-05-17T05:40:48.421Z,0.70
2023-05-17T05:43:15.645Z,0.77
2023-05-17T05:45:46.023Z,0.60
2023-05-17T05:48:14.138Z,0.80
2023-05-17T05:50:44.397Z,0.63
2023-05-17T05:53:19.016Z,0.80
2023-05-17T05:55:51.309Z,0.77
2023-05-17T05:58:18.762Z,0.70
2023-05-17T06:00:46.328Z,0.70
2023-05-17T06:03:13.159Z,0.68
2023-05-17T06:05:40.495Z,0.68
2023-05-17T06:08:07.575Z,0.70
2023-05-17T06:10:34.507Z,0.77
2023-05-17T06:13:01.343Z,0.77
2023-05-17T06:15:28.611Z,0.90
2023-05-17T06:17:55.470Z,0.90
2023-05-17T06:20:22.485Z,0.70
2023-05-17T06:22:49.332Z,0.70
2023-05-17T06:25:16.339Z,0.60
2023-05-17T06:27:43.844Z,0.70
2023-05-17T06:30:11.383Z,0.60
2023-05-17T06:32:38.281Z,0.73
2023-05-17T06:35:05.462Z,0.65
2023-05-17T06:37:32.518Z,0.65
2023-05-17T06:42:36.317Z,0.60
2023-05-17T06:45:03.324Z,0.43
2023-05-17T06:47:30.290Z,0.52
2023-05-17T06:49:57.102Z,0.60
2023-05-17T06:52:23.967Z,1.10
2023-05-17T06:54:50.797Z,0.73
2023-05-17T06:57:17.546Z,0.60
2023-05-17T06:59:44.618Z,0.70
2023-05-17T07:02:11.648Z,0.70
2023-05-17T07:04:39.263Z,0.60
2023-05-17T07:07:06.374Z,0.60
2023-05-17T07:09:33.060Z,0.70
2023-05-17T07:11:59.757Z,0.50
2023-05-17T07:14:26.486Z,0.80
2023-05-17T07:16:53.612Z,0.77
2023-05-17T07:19:20.744Z,0.70
2023-05-17T07:21:47.732Z,0.85
2023-05-17T07:24:14.620Z,0.68
2023-05-17T07:26:41.358Z,0.70
2023-05-17T07:29:08.068Z,0.80
2023-05-17T07:31:34.903Z,0.60
2023-05-17T07:34:01.968Z,0.65
2023-05-17T07:36:31.648Z,0.70
2023-05-17T07:38:58.422Z,1.00
2023-05-17T07:41:25.952Z,0.70
2023-05-17T07:43:52.770Z,0.60
2023-05-17T07:46:20.332Z,0.70
2023-05-17T07:48:47.170Z,0.80
2023-05-17T07:51:14.289Z,0.57
2023-05-17T07:53:41.048Z,0.88
2023-05-17T07:56:08.010Z,0.60
2023-05-17T07:58:36.166Z,0.63
2023-05-17T08:01:02.922Z,0.60
2023-05-17T08:03:30.725Z,0.70
2023-05-17T08:05:57.483Z,1.30
2023-05-17T08:08:24.263Z,1.13
2023-05-17T08:10:51.125Z,0.70
2023-05-17T08:13:17.928Z,1.10
2023-05-17T08:15:44.725Z,0.68
2023-05-17T08:18:11.553Z,1.05
2023-05-17T08:20:38.378Z,0.80
2023-05-17T08:23:05.125Z,0.63
2023-05-17T08:25:31.993Z,1.00
2023-05-17T08:27:58.947Z,0.65
2023-05-17T08:30:28.832Z,0.80
2023-05-17T08:32:56.861Z,0.68
2023-05-17T08:35:24.981Z,0.73
2023-05-17T08:37:53.793Z,0.77
2023-05-17T08:40:23.678Z,0.60
2023-05-17T08:42:52.278Z,0.68
2023-05-17T08:45:19.071Z,0.57
2023-05-17T08:47:49.153Z,0.65
2023-05-17T08:50:17.524Z,0.60
2023-05-17T08:52:46.360Z,0.55
2023-05-17T08:55:16.335Z,0.60
2023-05-17T08:57:44.690Z,0.60
2023-05-17T09:00:15.514Z,0.70
2023-05-17T09:02:42.965Z,0.60
2023-05-17T09:05:10.723Z,0.60
2023-05-17T09:07:37.766Z,0.70
2023-05-17T09:10:05.886Z,0.88
2023-05-17T09:12:35.186Z,1.20
2023-05-17T09:15:15.413Z,1.00
2023-05-17T09:17:43.273Z,0.68
2023-05-17T09:20:11.514Z,0.70
2023-05-17T09:22:38.408Z,0.80
2023-05-17T09:25:05.632Z,0.70
2023-05-17T09:27:32.520Z,0.90
2023-05-17T09:29:59.282Z,0.77
2023-05-17T09:32:26.370Z,0.50
2023-05-17T09:34:53.765Z,0.75
2023-05-17T09:37:21.045Z,0.73
2023-05-17T09:39:48.550Z,0.70
2023-05-17T09:42:16.750Z,0.70
2023-05-17T09:44:59.845Z,0.70
2023-05-17T09:47:28.755Z,0.77
2023-05-17T09:49:58.099Z,0.70
2023-05-17T09:52:25.132Z,0.70
2023-05-17T09:54:56.552Z,0.50
2023-05-17T09:57:25.211Z,0.75
2023-05-17T09:59:57.700Z,0.80
2023-05-17T10:02:32.874Z,0.60
2023-05-17T10:05:05.269Z,0.70
2023-05-17T10:07:32.654Z,0.75
2023-05-17T10:09:59.660Z,0.80
2023-05-17T10:12:30.140Z,0.70
2023-05-17T10:14:59.822Z,1.17
2023-05-17T10:17:30.761Z,0.80
2023-05-17T10:19:58.456Z,0.93
2023-05-17T10:22:27.187Z,0.75
2023-05-17T10:24:56.018Z,0.90
2023-05-17T10:27:26.038Z,0.50
2023-05-17T10:29:54.688Z,0.80
2023-05-17T10:32:26.606Z,0.70
2023-05-17T10:35:09.243Z,0.70
2023-05-17T10:37:40.260Z,0.80
2023-05-17T10:40:13.231Z,0.70
2023-05-17T10:42:47.707Z,0.80
2023-05-17T10:45:14.686Z,0.73
2023-05-17T10:47:42.798Z,0.90
2023-05-17T10:50:15.095Z,0.82
2023-05-17T10:52:49.612Z,0.90
2023-05-17T10:55:21.270Z,0.60
2023-05-17T10:58:11.346Z,0.70
2023-05-17T11:00:42.202Z,0.52
2023-05-17T11:03:29.040Z,0.68
2023-05-17T11:06:21.991Z,0.98
2023-05-17T11:09:14.179Z,0.95
2023-05-17T11:12:05.112Z,0.90
2023-05-17T11:14:53.629Z,0.80
2023-05-17T11:17:22.312Z,0.70
2023-05-17T11:19:56.929Z,0.90
2023-05-17T11:22:28.024Z,1.13
2023-05-17T11:24:57.582Z,0.70
2023-05-17T11:27:27.949Z,0.80
2023-05-17T11:29:55.317Z,0.70
2023-05-17T11:32:32.579Z,0.90
2023-05-17T11:35:01.088Z,1.00
2023-05-17T11:37:31.503Z,0.80
2023-05-17T11:40:06.716Z,0.82
2023-05-17T11:42:34.838Z,0.50
2023-05-17T11:45:02.845Z,0.73
2023-05-17T11:47:29.953Z,0.85
2023-05-17T11:50:01.379Z,0.70
2023-05-17T11:52:29.431Z,0.75
2023-05-17T11:54:58.452Z,1.50
2023-05-17T11:57:31.140Z,0.73
2023-05-17T12:00:02.155Z,0.70
2023-05-17T12:02:33.153Z,1.10
2023-05-17T12:05:00.298Z,0.80
2023-05-17T12:07:28.007Z,0.60
2023-05-17T12:09:54.771Z,0.60
2023-05-17T12:12:21.754Z,0.73
2023-05-17T12:14:50.459Z,0.65
2023-05-17T12:17:27.806Z,0.73
2023-05-17T12:19:55.385Z,0.80
2023-05-17T12:22:22.422Z,0.60
2023-05-17T12:24:49.261Z,1.05
2023-05-17T12:27:26.424Z,0.70
2023-05-17T12:29:54.147Z,0.50
2023-05-17T12:32:21.307Z,0.50
2023-05-17T12:34:49.370Z,0.63
2023-05-17T12:37:16.500Z,0.50
2023-05-17T12:39:43.750Z,0.70
2023-05-17T12:42:10.762Z,0.70
2023-05-17T12:44:39.513Z,0.60
2023-05-17T12:47:06.572Z,0.60
2023-05-17T12:49:38.497Z,0.60
2023-05-17T12:52:05.668Z,0.70
2023-05-17T12:54:33.200Z,0.60
2023-05-17T12:57:12.457Z,0.70
2023-05-17T12:59:51.689Z,0.70
2023-05-17T13:02:20.453Z,0.70
2023-05-17T13:04:47.550Z,0.80
2023-05-17T13:07:22.777Z,0.70
2023-05-17T13:09:49.534Z,0.80
2023-05-17T13:12:23.898Z,1.00
2023-05-17T13:14:53.419Z,0.73
2023-05-17T13:17:44.853Z,0.77
2023-05-17T13:20:11.867Z,0.63
2023-05-17T13:22:46.448Z,0.70
2023-05-17T13:25:15.116Z,0.60
2023-05-17T13:27:46.687Z,0.73
2023-05-17T13:30:14.136Z,0.90
2023-05-17T13:32:40.962Z,0.88
2023-05-17T13:35:08.315Z,0.90
2023-05-17T13:37:36.011Z,0.90
2023-05-17T13:40:04.274Z,1.15
2023-05-17T13:42:31.965Z,0.93
2023-05-17T13:44:58.914Z,0.93
2023-05-17T13:47:26.120Z,0.80
2023-05-17T13:49:52.918Z,1.10
2023-05-17T13:52:19.712Z,1.08
2023-05-17T13:54:46.934Z,0.90
2023-05-17T13:57:13.908Z,1.38
2023-05-17T13:59:41.108Z,1.40
2023-05-17T14:02:09.153Z,1.23
2023-05-17T14:04:36.228Z,1.10
2023-05-17T14:07:03.702Z,1.60
2023-05-17T14:09:33.722Z,1.30
2023-05-17T14:12:01.631Z,1.20
2023-05-17T14:14:28.903Z,1.10
2023-05-17T14:16:55.615Z,1.50
2023-05-17T14:19:22.638Z,1.10
2023-05-17T14:21:50.259Z,1.20
2023-05-17T14:24:17.007Z,1.10
2023-05-17T14:26:44.170Z,1.10
2023-05-17T14:29:11.002Z,1.25
2023-05-17T14:31:37.768Z,1.30
2023-05-17T14:34:04.574Z,1.45
2023-05-17T14:36:31.904Z,1.50
2023-05-17T14:38:59.328Z,1.75
2023-05-17T14:41:26.341Z,1.38
2023-05-17T14:43:53.043Z,1.33
2023-05-17T14:46:19.761Z,1.50
2023-05-17T14:48:46.772Z,1.30
2023-05-17T14:51:13.729Z,1.58
2023-05-17T14:53:40.582Z,1.30
2023-05-17T14:56:07.666Z,1.77
2023-05-17T14:58:34.483Z,1.30
2023-05-17T15:01:05.399Z,1.60
2023-05-17T15:03:34.415Z,1.50
2023-05-17T15:06:03.267Z,1.67
2023-05-17T15:08:32.202Z,1.40
2023-05-17T15:10:58.979Z,1.55
2023-05-17T15:13:25.787Z,1.40
2023-05-17T15:15:53.003Z,1.58
2023-05-17T15:18:20.430Z,1.63
2023-05-17T15:20:47.227Z,1.63
2023-05-17T15:23:14.045Z,1.60
2023-05-17T15:25:41.455Z,1.75
2023-05-17T15:28:08.367Z,1.50
2023-05-17T15:30:35.103Z,1.73
2023-05-17T15:33:02.590Z,1.50
2023-05-17T15:35:29.545Z,1.67
2023-05-17T15:37:58.792Z,1.58
2023-05-17T15:40:26.001Z,1.70
2023-05-17T15:42:52.769Z,1.60
2023-05-17T15:45:21.300Z,1.52
2023-05-17T15:47:49.307Z,1.55
2023-05-17T15:50:16.706Z,1.88
2023-05-17T15:52:43.497Z,1.88
2023-05-17T15:55:10.922Z,1.80
2023-05-17T15:57:37.704Z,1.70
2023-05-17T16:00:05.114Z,1.60
2023-05-17T16:02:31.972Z,1.80
2023-05-17T16:05:00.600Z,1.70
2023-05-17T16:07:29.401Z,1.70
2023-05-17T16:09:56.132Z,1.60
2023-05-17T16:12:22.833Z,1.48
2023-05-17T16:14:49.585Z,1.52
2023-05-17T16:17:16.349Z,1.80
2023-05-17T16:19:43.093Z,1.70
2023-05-17T16:22:10.004Z,2.17
2023-05-17T16:24:37.100Z,1.85
2023-05-17T16:27:05.769Z,1.90
2023-05-17T16:29:39.631Z,2.00
2023-05-17T16:32:07.861Z,1.98
2023-05-17T16:34:34.771Z,1.70
2023-05-17T16:37:01.504Z,2.03
2023-05-17T16:39:28.745Z,1.73
2023-05-17T16:41:55.803Z,1.80
2023-05-17T16:44:22.536Z,1.80
2023-05-17T16:46:50.298Z,2.15
2023-05-17T16:49:17.185Z,1.77
2023-05-17T16:51:45.382Z,2.05
2023-05-17T16:54:12.213Z,2.10
2023-05-17T16:56:39.507Z,2.25
2023-05-17T16:59:06.218Z,1.92
2023-05-17T17:01:33.055Z,2.20
2023-05-17T17:04:00.034Z,2.33
2023-05-17T17:06:26.989Z,2.25
2023-05-17T17:08:53.704Z,2.30
2023-05-17T17:11:23.237Z,2.10
2023-05-17T17:13:50.063Z,1.90
2023-05-17T17:16:17.442Z,2.42
2023-05-17T17:18:44.314Z,2.42
2023-05-17T17:21:11.047Z,2.50
2023-05-17T17:23:39.689Z,2.40
2023-05-17T17:26:08.685Z,2.47
2023-05-17T17:28:35.707Z,2.55
2023-05-17T17:31:02.582Z,2.30
2023-05-17T17:33:29.386Z,2.60
2023-05-17T17:35:56.351Z,2.47
2023-05-17T17:38:23.099Z,2.60
2023-05-17T17:40:49.882Z,2.78
2023-05-17T17:43:16.806Z,2.65
2023-05-17T17:45:46.263Z,2.47
2023-05-17T17:48:13.198Z,2.30
2023-05-17T17:50:40.133Z,2.50
2023-05-17T17:53:06.864Z,2.67
2023-05-17T17:55:33.637Z,2.60
2023-05-17T17:58:00.317Z,3.00
2023-05-17T18:00:27.203Z,2.35
2023-05-17T18:02:54.623Z,2.60
2023-05-17T18:05:21.404Z,2.33
2023-05-17T18:07:48.124Z,2.60
2023-05-17T18:10:14.830Z,2.40
2023-05-17T18:12:41.544Z,2.22
2023-05-17T18:15:08.827Z,2.20
2023-05-17T18:17:35.666Z,2.35
2023-05-17T18:20:02.483Z,2.50
2023-05-17T18:22:29.795Z,2.47
2023-05-17T18:24:56.513Z,2.33
2023-05-17T18:27:23.239Z,2.65
2023-05-17T18:29:50.049Z,2.33
2023-05-17T18:32:17.040Z,2.60
2023-05-17T18:34:43.846Z,2.47
2023-05-17T18:37:10.609Z,2.70
2023-05-17T18:39:37.324Z,2.60
2023-05-17T18:42:04.404Z,2.30
2023-05-17T18:44:31.171Z,2.30
2023-05-17T18:46:57.989Z,2.80
2023-05-17T18:49:26.390Z,2.25
2023-05-17T18:51:53.254Z,2.20
2023-05-17T18:54:20.096Z,2.17
2023-05-17T18:56:46.847Z,2.50
2023-05-17T18:59:13.550Z,2.58
2023-05-17T19:01:40.233Z,2.58
2023-05-17T19:04:06.970Z,2.38
2023-05-17T19:06:33.698Z,2.60
2023-05-17T19:09:00.475Z,2.40
2023-05-17T19:11:28.643Z,2.35
2023-05-17T19:13:55.751Z,2.22
2023-05-17T19:16:22.556Z,2.38
2023-05-17T19:18:49.925Z,2.22
2023-05-17T19:21:16.779Z,2.08
2023-05-17T19:23:43.559Z,2.30
2023-05-17T19:26:10.397Z,2.13
2023-05-17T19:28:37.161Z,2.42
2023-05-17T19:31:04.533Z,2.10
2023-05-17T19:33:32.051Z,2.40
2023-05-17T19:35:58.828Z,2.35
2023-05-17T19:38:25.608Z,2.47
2023-05-17T19:40:52.472Z,2.15
2023-05-17T19:43:19.234Z,2.30
2023-05-17T19:45:46.087Z,2.35
2023-05-17T19:48:13.208Z,2.42
2023-05-17T19:50:40.044Z,2.10
2023-05-17T19:53:08.030Z,2.28
2023-05-17T19:55:36.335Z,2.20
2023-05-17T19:58:03.580Z,2.30
2023-05-17T20:00:32.602Z,2.20
2023-05-17T20:02:59.823Z,2.15
2023-05-17T20:05:27.243Z,2.20
2023-05-17T20:07:55.205Z,2.10
2023-05-17T20:10:22.328Z,2.03
2023-05-17T20:12:49.037Z,2.03
2023-05-17T20:15:16.173Z,2.05
2023-05-17T20:17:43.034Z,1.98
2023-05-17T20:20:10.064Z,2.30
2023-05-17T20:22:37.731Z,1.90
2023-05-17T20:25:04.773Z,2.00
2023-05-17T20:27:31.696Z,2.47
2023-05-17T20:29:58.397Z,2.63
2023-05-17T20:32:25.192Z,2.38
2023-05-17T20:34:52.191Z,2.30
2023-05-17T20:37:18.993Z,2.10
2023-05-17T20:39:46.262Z,1.98
2023-05-17T20:42:17.756Z,2.10
2023-05-17T20:44:48.896Z,2.05
2023-05-17T20:47:15.777Z,2.58
2023-05-17T20:49:42.562Z,2.05
2023-05-17T20:52:09.275Z,2.10
2023-05-17T20:54:36.989Z,1.90
2023-05-17T20:57:04.149Z,2.22
2023-05-17T20:59:31.021Z,2.15
2023-05-17T21:01:57.962Z,2.20
2023-05-17T21:04:24.979Z,2.00
2023-05-17T21:06:52.322Z,2.10
2023-05-17T21:09:19.100Z,1.98
2023-05-17T21:11:45.898Z,2.05
2023-05-17T21:14:12.612Z,2.20
2023-05-17T21:16:39.530Z,1.90
2023-05-17T21:19:06.417Z,2.28
2023-05-17T21:21:33.165Z,2.15
2023-05-17T21:23:59.993Z,1.88
2023-05-17T21:28:54.959Z,2.00
2023-05-17T21:31:21.985Z,1.90
2023-05-17T21:33:49.636Z,1.70
2023-05-17T21:36:16.377Z,2.25
2023-05-17T21:38:43.140Z,2.30
2023-05-17T21:41:10.059Z,2.10
2023-05-17T21:43:36.829Z,1.90
2023-05-17T21:46:03.554Z,2.42
2023-05-17T21:48:30.358Z,2.28
2023-05-17T21:50:57.188Z,2.08
2023-05-17T21:53:23.887Z,2.08
2023-05-17T21:56:01.491Z,2.05
2023-05-17T21:58:29.859Z,1.85
2023-05-17T22:00:57.022Z,2.05
2023-05-17T22:03:24.002Z,2.00
2023-05-17T22:05:52.277Z,2.13
2023-05-17T22:08:19.063Z,1.83
2023-05-17T22:10:46.612Z,2.22
2023-05-17T22:13:15.779Z,2.00
2023-05-17T22:15:42.926Z,2.10
2023-05-17T22:18:12.394Z,2.05
2023-05-17T22:20:39.548Z,2.38
2023-05-17T22:23:06.296Z,2.28
2023-05-17T22:25:33.036Z,2.15
2023-05-17T22:27:59.780Z,2.20
2023-05-17T22:30:26.487Z,2.13
2023-05-17T22:32:56.886Z,2.30
2023-05-17T22:35:24.444Z,2.15
2023-05-17T22:37:53.212Z,2.15
2023-05-17T22:40:20.517Z,2.13
2023-05-17T22:42:48.217Z,2.50
2023-05-17T22:45:15.111Z,2.15
2023-05-17T22:47:46.458Z,2.00
2023-05-17T22:50:15.454Z,2.15
2023-05-17T22:52:42.728Z,2.15
2023-05-17T22:55:10.501Z,2.10
2023-05-17T22:57:37.353Z,2.25
2023-05-17T23:00:09.327Z,2.10
2023-05-17T23:02:36.241Z,2.15
2023-05-17T23:05:03.220Z,2.28
2023-05-17T23:07:37.031Z,1.98
2023-05-17T23:10:08.531Z,2.10
2023-05-17T23:12:36.837Z,1.92
2023-05-17T23:15:05.099Z,2.28
2023-05-17T23:17:32.535Z,2.38
2023-05-17T23:20:10.390Z,2.25
2023-05-17T23:22:37.849Z,2.20
2023-05-17T23:25:06.024Z,2.20
2023-05-17T23:27:33.575Z,2.03
2023-05-17T23:30:01.072Z,2.17
2023-05-17T23:32:28.449Z,2.30
2023-05-17T23:35:03.268Z,2.03
2023-05-17T23:37:31.579Z,2.38
2023-05-17T23:39:58.662Z,2.00
2023-05-17T23:42:29.422Z,2.38
2023-05-17T23:44:56.205Z,2.22
2023-05-17T23:47:23.221Z,2.30
2023-05-17T23:49:50.225Z,2.10
2023-05-17T23:52:18.726Z,1.98
2023-05-17T23:54:47.492Z,2.20
2023-05-17T23:57:14.278Z,2.20
2023-05-17T23:59:41.409Z,2.35
